sensor_id;sensor_type;location;lat;lon;timestamp;P1;durP1;ratioP1;P2;durP2;ratioP2
21697;SDS011;11010;49.548;11.926;2023-02-17T00:00:32;29.43;;;12.03;;
21697;SDS011;11010;49.548;11.926;2023-02-17T00:02:59;27.80;;;12.23;;
21697;SDS011;11010;49.548;11.926;2023-02-17T00:05:27;31.77;;;13.40;;
21697;SDS011;11010;49.548;11.926;2023-02-17T00:07:54;27.90;;;12.83;;
21697;SDS011;11010;49.548;11.926;2023-02-17T00:10:21;26.50;;;12.33;;
21697;SDS011;11010;49.548;11.926;2023-02-17T00:12:49;28.23;;;12.53;;
21697;SDS011;11010;49.548;11.926;2023-02-17T00:15:16;29.27;;;12.60;;
21697;SDS011;11010;49.548;11.926;2023-02-17T00:17:43;27.93;;;11.73;;
21697;SDS011;11010;49.548;11.926;2023-02-17T00:20:11;29.57;;;12.53;;
21697;SDS011;11010;49.548;11.926;2023-02-17T00:22:38;28.07;;;12.60;;
21697;SDS011;11010;49.548;11.926;2023-02-17T00:25:06;26.07;;;12.07;;
21697;SDS011;11010;49.548;11.926;2023-02-17T00:27:33;27.00;;;11.47;;
21697;SDS011;11010;49.548;11.926;2023-02-17T00:30:01;29.07;;;12.33;;
21697;SDS011;11010;49.548;11.926;2023-02-17T00:32:28;29.10;;;12.47;;
21697;SDS011;11010;49.548;11.926;2023-02-17T00:34:56;28.13;;;11.57;;
21697;SDS011;11010;49.548;11.926;2023-02-17T00:37:24;26.87;;;11.60;;
21697;SDS011;11010;49.548;11.926;2023-02-17T00:39:53;26.17;;;12.43;;
21697;SDS011;11010;49.548;11.926;2023-02-17T00:42:20;27.83;;;12.43;;
21697;SDS011;11010;49.548;11.926;2023-02-17T00:44:48;27.13;;;12.53;;
21697;SDS011;11010;49.548;11.926;2023-02-17T00:47:15;26.10;;;11.57;;
21697;SDS011;11010;49.548;11.926;2023-02-17T00:49:42;24.80;;;11.53;;
21697;SDS011;11010;49.548;11.926;2023-02-17T00:52:10;27.23;;;11.73;;
21697;SDS011;11010;49.548;11.926;2023-02-17T00:54:37;26.40;;;11.00;;
21697;SDS011;11010;49.548;11.926;2023-02-17T00:57:08;24.87;;;11.43;;
21697;SDS011;11010;49.548;11.926;2023-02-17T00:59:35;26.23;;;10.73;;
21697;SDS011;11010;49.548;11.926;2023-02-17T01:02:06;27.33;;;11.50;;
21697;SDS011;11010;49.548;11.926;2023-02-17T01:04:34;28.17;;;12.00;;
21697;SDS011;11010;49.548;11.926;2023-02-17T01:07:02;24.50;;;10.93;;
21697;SDS011;11010;49.548;11.926;2023-02-17T01:09:29;27.17;;;11.97;;
21697;SDS011;11010;49.548;11.926;2023-02-17T01:11:56;26.57;;;11.70;;
21697;SDS011;11010;49.548;11.926;2023-02-17T01:14:24;27.13;;;11.70;;
21697;SDS011;11010;49.548;11.926;2023-02-17T01:16:54;24.43;;;10.67;;
21697;SDS011;11010;49.548;11.926;2023-02-17T01:19:21;24.43;;;10.20;;
21697;SDS011;11010;49.548;11.926;2023-02-17T01:21:49;24.70;;;11.73;;
21697;SDS011;11010;49.548;11.926;2023-02-17T01:24:16;23.83;;;10.83;;
21697;SDS011;11010;49.548;11.926;2023-02-17T01:26:44;23.73;;;10.90;;
21697;SDS011;11010;49.548;11.926;2023-02-17T01:29:11;23.60;;;11.07;;
21697;SDS011;11010;49.548;11.926;2023-02-17T01:31:38;27.17;;;10.87;;
21697;SDS011;11010;49.548;11.926;2023-02-17T01:34:10;25.50;;;11.00;;
21697;SDS011;11010;49.548;11.926;2023-02-17T01:36:37;26.23;;;10.87;;
21697;SDS011;11010;49.548;11.926;2023-02-17T01:39:04;26.10;;;11.47;;
21697;SDS011;11010;49.548;11.926;2023-02-17T01:41:32;24.63;;;10.90;;
21697;SDS011;11010;49.548;11.926;2023-02-17T01:46:36;24.30;;;10.63;;
21697;SDS011;11010;49.548;11.926;2023-02-17T01:49:08;24.53;;;10.93;;
21697;SDS011;11010;49.548;11.926;2023-02-17T01:51:38;24.23;;;10.93;;
21697;SDS011;11010;49.548;11.926;2023-02-17T01:54:11;27.40;;;11.50;;
21697;SDS011;11010;49.548;11.926;2023-02-17T01:56:42;26.90;;;10.77;;
21697;SDS011;11010;49.548;11.926;2023-02-17T01:59:12;26.10;;;10.83;;
21697;SDS011;11010;49.548;11.926;2023-02-17T02:01:42;24.27;;;11.47;;
21697;SDS011;11010;49.548;11.926;2023-02-17T02:04:10;25.97;;;10.60;;
21697;SDS011;11010;49.548;11.926;2023-02-17T02:06:40;29.03;;;11.60;;
21697;SDS011;11010;49.548;11.926;2023-02-17T02:09:11;24.57;;;11.10;;
21697;SDS011;11010;49.548;11.926;2023-02-17T02:11:40;24.17;;;10.40;;
21697;SDS011;11010;49.548;11.926;2023-02-17T02:14:07;25.03;;;11.00;;
21697;SDS011;11010;49.548;11.926;2023-02-17T02:33:56;23.00;;;10.63;;
21697;SDS011;11010;49.548;11.926;2023-02-17T02:38:56;25.80;;;11.23;;
21697;SDS011;11010;49.548;11.926;2023-02-17T02:41:39;26.33;;;11.60;;
21697;SDS011;11010;49.548;11.926;2023-02-17T02:44:11;26.90;;;11.37;;
21697;SDS011;11010;49.548;11.926;2023-02-17T02:46:39;25.93;;;12.17;;
21697;SDS011;11010;49.548;11.926;2023-02-17T02:49:07;25.07;;;10.40;;
21697;SDS011;11010;49.548;11.926;2023-02-17T02:54:08;24.40;;;11.13;;
21697;SDS011;11010;49.548;11.926;2023-02-17T02:59:22;27.43;;;11.43;;
21697;SDS011;11010;49.548;11.926;2023-02-17T03:02:07;24.73;;;10.60;;
21697;SDS011;11010;49.548;11.926;2023-02-17T03:04:44;23.97;;;10.53;;
21697;SDS011;11010;49.548;11.926;2023-02-17T03:07:28;27.30;;;12.10;;
21697;SDS011;11010;49.548;11.926;2023-02-17T03:09:57;27.93;;;11.40;;
21697;SDS011;11010;49.548;11.926;2023-02-17T03:12:25;29.03;;;12.10;;
21697;SDS011;11010;49.548;11.926;2023-02-17T03:14:55;26.70;;;11.90;;
21697;SDS011;11010;49.548;11.926;2023-02-17T03:17:23;23.23;;;10.80;;
21697;SDS011;11010;49.548;11.926;2023-02-17T03:19:51;25.73;;;10.63;;
21697;SDS011;11010;49.548;11.926;2023-02-17T03:22:21;25.00;;;10.70;;
21697;SDS011;11010;49.548;11.926;2023-02-17T03:24:49;25.50;;;11.20;;
21697;SDS011;11010;49.548;11.926;2023-02-17T03:27:17;28.30;;;11.27;;
21697;SDS011;11010;49.548;11.926;2023-02-17T03:29:46;23.70;;;10.23;;
21697;SDS011;11010;49.548;11.926;2023-02-17T03:32:15;25.50;;;11.60;;
21697;SDS011;11010;49.548;11.926;2023-02-17T03:34:42;25.83;;;11.30;;
21697;SDS011;11010;49.548;11.926;2023-02-17T03:37:09;24.60;;;10.93;;
21697;SDS011;11010;49.548;11.926;2023-02-17T03:39:37;23.80;;;10.13;;
21697;SDS011;11010;49.548;11.926;2023-02-17T03:42:04;25.10;;;11.03;;
21697;SDS011;11010;49.548;11.926;2023-02-17T03:44:31;24.97;;;10.27;;
21697;SDS011;11010;49.548;11.926;2023-02-17T03:46:59;26.13;;;10.63;;
21697;SDS011;11010;49.548;11.926;2023-02-17T03:49:26;25.23;;;10.90;;
21697;SDS011;11010;49.548;11.926;2023-02-17T03:51:54;24.43;;;10.53;;
21697;SDS011;11010;49.548;11.926;2023-02-17T03:54:21;23.57;;;10.87;;
21697;SDS011;11010;49.548;11.926;2023-02-17T03:56:48;22.50;;;10.40;;
21697;SDS011;11010;49.548;11.926;2023-02-17T03:59:16;22.83;;;10.03;;
21697;SDS011;11010;49.548;11.926;2023-02-17T04:01:43;26.37;;;10.80;;
21697;SDS011;11010;49.548;11.926;2023-02-17T04:04:11;23.67;;;10.30;;
21697;SDS011;11010;49.548;11.926;2023-02-17T04:06:38;26.20;;;11.80;;
21697;SDS011;11010;49.548;11.926;2023-02-17T04:09:05;22.60;;;10.07;;
21697;SDS011;11010;49.548;11.926;2023-02-17T04:11:33;21.37;;;9.87;;
21697;SDS011;11010;49.548;11.926;2023-02-17T04:14:00;23.87;;;10.37;;
21697;SDS011;11010;49.548;11.926;2023-02-17T04:16:28;24.03;;;9.77;;
21697;SDS011;11010;49.548;11.926;2023-02-17T04:18:55;23.57;;;9.97;;
21697;SDS011;11010;49.548;11.926;2023-02-17T04:21:22;23.53;;;10.17;;
21697;SDS011;11010;49.548;11.926;2023-02-17T04:31:47;22.47;;;9.43;;
21697;SDS011;11010;49.548;11.926;2023-02-17T04:34:15;20.30;;;9.33;;
21697;SDS011;11010;49.548;11.926;2023-02-17T04:36:42;25.90;;;10.33;;
21697;SDS011;11010;49.548;11.926;2023-02-17T04:39:10;21.87;;;9.97;;
21697;SDS011;11010;49.548;11.926;2023-02-17T04:41:37;24.10;;;9.97;;
21697;SDS011;11010;49.548;11.926;2023-02-17T04:44:05;24.47;;;10.60;;
21697;SDS011;11010;49.548;11.926;2023-02-17T04:46:32;22.57;;;9.27;;
21697;SDS011;11010;49.548;11.926;2023-02-17T04:49:00;20.07;;;9.07;;
21697;SDS011;11010;49.548;11.926;2023-02-17T04:51:28;23.17;;;9.97;;
21697;SDS011;11010;49.548;11.926;2023-02-17T04:53:56;24.43;;;10.47;;
21697;SDS011;11010;49.548;11.926;2023-02-17T04:56:24;22.83;;;10.00;;
21697;SDS011;11010;49.548;11.926;2023-02-17T04:58:52;21.03;;;9.37;;
21697;SDS011;11010;49.548;11.926;2023-02-17T05:01:21;21.53;;;9.57;;
21697;SDS011;11010;49.548;11.926;2023-02-17T05:03:48;21.23;;;9.23;;
21697;SDS011;11010;49.548;11.926;2023-02-17T05:06:18;21.13;;;9.23;;
21697;SDS011;11010;49.548;11.926;2023-02-17T05:08:46;22.90;;;10.20;;
21697;SDS011;11010;49.548;11.926;2023-02-17T05:11:16;22.87;;;10.33;;
21697;SDS011;11010;49.548;11.926;2023-02-17T05:13:47;24.90;;;10.80;;
21697;SDS011;11010;49.548;11.926;2023-02-17T05:16:15;23.47;;;9.43;;
21697;SDS011;11010;49.548;11.926;2023-02-17T05:18:42;28.20;;;13.03;;
21697;SDS011;11010;49.548;11.926;2023-02-17T05:21:10;24.73;;;9.90;;
21697;SDS011;11010;49.548;11.926;2023-02-17T05:23:38;23.17;;;9.83;;
21697;SDS011;11010;49.548;11.926;2023-02-17T05:26:07;22.77;;;10.60;;
21697;SDS011;11010;49.548;11.926;2023-02-17T05:28:35;21.40;;;9.90;;
21697;SDS011;11010;49.548;11.926;2023-02-17T05:31:03;21.17;;;9.37;;
21697;SDS011;11010;49.548;11.926;2023-02-17T05:33:31;24.03;;;10.13;;
21697;SDS011;11010;49.548;11.926;2023-02-17T05:36:02;24.43;;;9.90;;
21697;SDS011;11010;49.548;11.926;2023-02-17T05:38:31;23.70;;;10.30;;
21697;SDS011;11010;49.548;11.926;2023-02-17T05:40:58;20.90;;;9.80;;
21697;SDS011;11010;49.548;11.926;2023-02-17T05:43:25;21.33;;;9.67;;
21697;SDS011;11010;49.548;11.926;2023-02-17T05:45:53;21.17;;;9.23;;
21697;SDS011;11010;49.548;11.926;2023-02-17T05:48:21;21.67;;;9.83;;
21697;SDS011;11010;49.548;11.926;2023-02-17T05:50:48;22.00;;;9.63;;
21697;SDS011;11010;49.548;11.926;2023-02-17T05:53:16;22.53;;;10.23;;
21697;SDS011;11010;49.548;11.926;2023-02-17T05:55:43;21.03;;;9.13;;
21697;SDS011;11010;49.548;11.926;2023-02-17T05:58:14;23.47;;;9.17;;
21697;SDS011;11010;49.548;11.926;2023-02-17T06:00:41;22.10;;;8.73;;
21697;SDS011;11010;49.548;11.926;2023-02-17T06:03:08;22.43;;;9.20;;
21697;SDS011;11010;49.548;11.926;2023-02-17T06:05:36;21.07;;;8.83;;
21697;SDS011;11010;49.548;11.926;2023-02-17T06:08:03;22.17;;;9.23;;
21697;SDS011;11010;49.548;11.926;2023-02-17T06:10:31;19.53;;;8.43;;
21697;SDS011;11010;49.548;11.926;2023-02-17T06:12:58;18.57;;;7.60;;
21697;SDS011;11010;49.548;11.926;2023-02-17T06:15:26;19.77;;;8.63;;
21697;SDS011;11010;49.548;11.926;2023-02-17T06:17:53;20.73;;;8.30;;
21697;SDS011;11010;49.548;11.926;2023-02-17T06:20:21;19.37;;;7.93;;
21697;SDS011;11010;49.548;11.926;2023-02-17T06:22:48;17.07;;;6.90;;
21697;SDS011;11010;49.548;11.926;2023-02-17T06:25:16;17.77;;;6.33;;
21697;SDS011;11010;49.548;11.926;2023-02-17T06:27:43;13.90;;;5.50;;
21697;SDS011;11010;49.548;11.926;2023-02-17T06:30:11;13.23;;;5.27;;
21697;SDS011;11010;49.548;11.926;2023-02-17T06:32:39;12.73;;;3.63;;
21697;SDS011;11010;49.548;11.926;2023-02-17T06:35:06;12.83;;;5.03;;
21697;SDS011;11010;49.548;11.926;2023-02-17T06:37:34;13.97;;;4.80;;
21697;SDS011;11010;49.548;11.926;2023-02-17T06:40:01;12.57;;;4.50;;
21697;SDS011;11010;49.548;11.926;2023-02-17T06:42:29;12.83;;;4.50;;
21697;SDS011;11010;49.548;11.926;2023-02-17T06:44:57;13.67;;;4.47;;
21697;SDS011;11010;49.548;11.926;2023-02-17T06:47:26;14.93;;;5.63;;
21697;SDS011;11010;49.548;11.926;2023-02-17T06:49:53;14.57;;;4.90;;
21697;SDS011;11010;49.548;11.926;2023-02-17T06:52:21;11.37;;;4.43;;
21697;SDS011;11010;49.548;11.926;2023-02-17T06:54:48;13.20;;;4.30;;
21697;SDS011;11010;49.548;11.926;2023-02-17T06:57:16;12.83;;;4.90;;
21697;SDS011;11010;49.548;11.926;2023-02-17T06:59:43;11.23;;;3.80;;
21697;SDS011;11010;49.548;11.926;2023-02-17T07:02:11;10.00;;;3.53;;
21697;SDS011;11010;49.548;11.926;2023-02-17T07:04:39;12.50;;;4.40;;
21697;SDS011;11010;49.548;11.926;2023-02-17T07:07:07;10.07;;;3.77;;
21697;SDS011;11010;49.548;11.926;2023-02-17T07:09:35;11.07;;;3.87;;
21697;SDS011;11010;49.548;11.926;2023-02-17T07:12:03;11.13;;;3.83;;
21697;SDS011;11010;49.548;11.926;2023-02-17T07:14:31;7.97;;;2.80;;
21697;SDS011;11010;49.548;11.926;2023-02-17T07:16:59;12.70;;;4.50;;
21697;SDS011;11010;49.548;11.926;2023-02-17T07:19:26;14.97;;;5.17;;
21697;SDS011;11010;49.548;11.926;2023-02-17T07:21:54;13.60;;;4.73;;
21697;SDS011;11010;49.548;11.926;2023-02-17T07:24:21;13.53;;;4.20;;
21697;SDS011;11010;49.548;11.926;2023-02-17T07:26:49;7.57;;;2.73;;
21697;SDS011;11010;49.548;11.926;2023-02-17T07:29:17;13.40;;;4.40;;
21697;SDS011;11010;49.548;11.926;2023-02-17T07:31:44;12.57;;;4.60;;
21697;SDS011;11010;49.548;11.926;2023-02-17T07:34:12;12.67;;;4.47;;
21697;SDS011;11010;49.548;11.926;2023-02-17T07:36:39;13.43;;;4.40;;
21697;SDS011;11010;49.548;11.926;2023-02-17T07:39:06;11.67;;;4.00;;
21697;SDS011;11010;49.548;11.926;2023-02-17T07:41:34;11.60;;;4.40;;
21697;SDS011;11010;49.548;11.926;2023-02-17T07:44:07;12.73;;;4.40;;
21697;SDS011;11010;49.548;11.926;2023-02-17T07:46:35;10.97;;;3.90;;
21697;SDS011;11010;49.548;11.926;2023-02-17T07:49:05;12.23;;;4.90;;
21697;SDS011;11010;49.548;11.926;2023-02-17T07:51:32;12.90;;;4.27;;
21697;SDS011;11010;49.548;11.926;2023-02-17T07:54:00;13.53;;;4.83;;
21697;SDS011;11010;49.548;11.926;2023-02-17T07:56:28;14.63;;;4.50;;
21697;SDS011;11010;49.548;11.926;2023-02-17T07:58:55;15.23;;;4.83;;
21697;SDS011;11010;49.548;11.926;2023-02-17T08:01:23;11.13;;;4.17;;
21697;SDS011;11010;49.548;11.926;2023-02-17T08:03:51;11.23;;;4.03;;
21697;SDS011;11010;49.548;11.926;2023-02-17T08:06:20;11.47;;;4.20;;
21697;SDS011;11010;49.548;11.926;2023-02-17T08:08:48;12.70;;;3.67;;
21697;SDS011;11010;49.548;11.926;2023-02-17T08:11:35;11.70;;;3.93;;
21697;SDS011;11010;49.548;11.926;2023-02-17T08:14:31;11.07;;;4.17;;
21697;SDS011;11010;49.548;11.926;2023-02-17T08:16:59;10.20;;;3.60;;
21697;SDS011;11010;49.548;11.926;2023-02-17T08:19:27;12.20;;;3.47;;
21697;SDS011;11010;49.548;11.926;2023-02-17T08:22:11;10.60;;;3.83;;
21697;SDS011;11010;49.548;11.926;2023-02-17T08:24:39;11.03;;;3.63;;
21697;SDS011;11010;49.548;11.926;2023-02-17T08:27:06;11.17;;;4.03;;
21697;SDS011;11010;49.548;11.926;2023-02-17T08:29:34;11.17;;;3.23;;
21697;SDS011;11010;49.548;11.926;2023-02-17T08:32:01;8.80;;;3.10;;
21697;SDS011;11010;49.548;11.926;2023-02-17T08:34:29;11.43;;;3.60;;
21697;SDS011;11010;49.548;11.926;2023-02-17T08:37:00;9.67;;;3.27;;
21697;SDS011;11010;49.548;11.926;2023-02-17T08:39:28;10.23;;;3.20;;
21697;SDS011;11010;49.548;11.926;2023-02-17T08:41:55;9.90;;;3.17;;
21697;SDS011;11010;49.548;11.926;2023-02-17T08:44:23;10.47;;;3.53;;
21697;SDS011;11010;49.548;11.926;2023-02-17T08:46:51;10.67;;;3.40;;
21697;SDS011;11010;49.548;11.926;2023-02-17T08:49:20;9.60;;;3.40;;
21697;SDS011;11010;49.548;11.926;2023-02-17T08:51:48;7.93;;;2.30;;
21697;SDS011;11010;49.548;11.926;2023-02-17T08:54:16;9.43;;;3.33;;
21697;SDS011;11010;49.548;11.926;2023-02-17T08:56:44;7.13;;;2.33;;
21697;SDS011;11010;49.548;11.926;2023-02-17T08:59:11;9.43;;;3.10;;
21697;SDS011;11010;49.548;11.926;2023-02-17T09:01:39;7.37;;;2.33;;
21697;SDS011;11010;49.548;11.926;2023-02-17T09:04:07;11.97;;;3.43;;
21697;SDS011;11010;49.548;11.926;2023-02-17T09:06:39;8.20;;;2.67;;
21697;SDS011;11010;49.548;11.926;2023-02-17T09:09:08;11.40;;;3.10;;
21697;SDS011;11010;49.548;11.926;2023-02-17T09:11:36;9.27;;;3.23;;
21697;SDS011;11010;49.548;11.926;2023-02-17T09:14:05;7.07;;;2.47;;
21697;SDS011;11010;49.548;11.926;2023-02-17T09:16:32;10.40;;;3.03;;
21697;SDS011;11010;49.548;11.926;2023-02-17T09:19:00;8.00;;;2.53;;
21697;SDS011;11010;49.548;11.926;2023-02-17T09:21:27;10.30;;;3.60;;
21697;SDS011;11010;49.548;11.926;2023-02-17T09:23:55;10.20;;;3.03;;
21697;SDS011;11010;49.548;11.926;2023-02-17T09:26:23;8.97;;;2.20;;
21697;SDS011;11010;49.548;11.926;2023-02-17T09:28:50;9.53;;;3.00;;
21697;SDS011;11010;49.548;11.926;2023-02-17T09:31:19;9.27;;;2.93;;
21697;SDS011;11010;49.548;11.926;2023-02-17T09:33:47;9.70;;;2.90;;
21697;SDS011;11010;49.548;11.926;2023-02-17T09:36:16;11.40;;;3.00;;
21697;SDS011;11010;49.548;11.926;2023-02-17T09:38:44;6.80;;;2.30;;
21697;SDS011;11010;49.548;11.926;2023-02-17T09:43:58;12.33;;;2.37;;
21697;SDS011;11010;49.548;11.926;2023-02-17T09:46:30;8.90;;;2.60;;
21697;SDS011;11010;49.548;11.926;2023-02-17T09:49:00;7.90;;;2.03;;
21697;SDS011;11010;49.548;11.926;2023-02-17T09:51:29;7.67;;;2.60;;
21697;SDS011;11010;49.548;11.926;2023-02-17T09:56:42;10.53;;;2.47;;
21697;SDS011;11010;49.548;11.926;2023-02-17T09:59:27;8.33;;;2.50;;
21697;SDS011;11010;49.548;11.926;2023-02-17T10:01:55;5.63;;;1.10;;
21697;SDS011;11010;49.548;11.926;2023-02-17T10:04:28;8.50;;;1.97;;
21697;SDS011;11010;49.548;11.926;2023-02-17T10:12:47;7.07;;;2.00;;
21697;SDS011;11010;49.548;11.926;2023-02-17T10:15:16;8.07;;;2.40;;
21697;SDS011;11010;49.548;11.926;2023-02-17T10:20:35;7.10;;;1.60;;
21697;SDS011;11010;49.548;11.926;2023-02-17T10:23:06;5.43;;;1.43;;
21697;SDS011;11010;49.548;11.926;2023-02-17T10:25:40;6.07;;;1.60;;
21697;SDS011;11010;49.548;11.926;2023-02-17T10:28:15;4.73;;;1.43;;
21697;SDS011;11010;49.548;11.926;2023-02-17T10:30:49;6.57;;;1.63;;
21697;SDS011;11010;49.548;11.926;2023-02-17T10:35:52;6.90;;;1.70;;
21697;SDS011;11010;49.548;11.926;2023-02-17T10:40:57;8.03;;;2.00;;
21697;SDS011;11010;49.548;11.926;2023-02-17T10:43:26;7.13;;;2.20;;
21697;SDS011;11010;49.548;11.926;2023-02-17T10:45:55;7.10;;;1.93;;
21697;SDS011;11010;49.548;11.926;2023-02-17T10:48:27;7.43;;;1.90;;
21697;SDS011;11010;49.548;11.926;2023-02-17T10:50:57;6.03;;;1.70;;
21697;SDS011;11010;49.548;11.926;2023-02-17T10:53:30;5.83;;;1.80;;
21697;SDS011;11010;49.548;11.926;2023-02-17T11:01:10;6.03;;;1.90;;
21697;SDS011;11010;49.548;11.926;2023-02-17T11:03:38;5.10;;;1.57;;
21697;SDS011;11010;49.548;11.926;2023-02-17T11:16:21;4.57;;;1.27;;
21697;SDS011;11010;49.548;11.926;2023-02-17T11:18:52;7.60;;;2.00;;
21697;SDS011;11010;49.548;11.926;2023-02-17T11:21:20;7.97;;;2.23;;
21697;SDS011;11010;49.548;11.926;2023-02-17T11:23:53;4.13;;;1.27;;
21697;SDS011;11010;49.548;11.926;2023-02-17T11:26:22;7.30;;;2.00;;
21697;SDS011;11010;49.548;11.926;2023-02-17T11:28:50;4.03;;;1.20;;
21697;SDS011;11010;49.548;11.926;2023-02-17T11:31:29;10.13;;;2.13;;
21697;SDS011;11010;49.548;11.926;2023-02-17T11:33:57;8.27;;;2.17;;
21697;SDS011;11010;49.548;11.926;2023-02-17T11:36:28;5.30;;;1.53;;
21697;SDS011;11010;49.548;11.926;2023-02-17T11:38:56;7.13;;;2.00;;
21697;SDS011;11010;49.548;11.926;2023-02-17T11:41:26;6.37;;;1.77;;
21697;SDS011;11010;49.548;11.926;2023-02-17T11:43:57;7.87;;;1.97;;
21697;SDS011;11010;49.548;11.926;2023-02-17T11:46:45;5.70;;;1.70;;
21697;SDS011;11010;49.548;11.926;2023-02-17T11:49:19;6.40;;;2.00;;
21697;SDS011;11010;49.548;11.926;2023-02-17T12:23:04;6.30;;;1.90;;
21697;SDS011;11010;49.548;11.926;2023-02-17T12:25:36;5.87;;;1.53;;
21697;SDS011;11010;49.548;11.926;2023-02-17T12:35:39;7.17;;;1.80;;
21697;SDS011;11010;49.548;11.926;2023-02-17T12:38:10;7.57;;;2.10;;
21697;SDS011;11010;49.548;11.926;2023-02-17T12:40:57;5.37;;;1.40;;
21697;SDS011;11010;49.548;11.926;2023-02-17T12:44:13;5.33;;;1.43;;
21697;SDS011;11010;49.548;11.926;2023-02-17T12:46:19;4.83;;;1.43;;
21697;SDS011;11010;49.548;11.926;2023-02-17T12:49:05;5.43;;;1.50;;
21697;SDS011;11010;49.548;11.926;2023-02-17T12:56:58;4.10;;;1.43;;
21697;SDS011;11010;49.548;11.926;2023-02-17T12:59:32;3.80;;;1.23;;
21697;SDS011;11010;49.548;11.926;2023-02-17T13:02:10;6.30;;;1.37;;
21697;SDS011;11010;49.548;11.926;2023-02-17T13:04:39;8.13;;;1.67;;
21697;SDS011;11010;49.548;11.926;2023-02-17T13:09:35;4.00;;;1.10;;
21697;SDS011;11010;49.548;11.926;2023-02-17T13:14:44;2.97;;;1.00;;
21697;SDS011;11010;49.548;11.926;2023-02-17T13:22:32;5.93;;;1.80;;
21697;SDS011;11010;49.548;11.926;2023-02-17T13:24:59;2.70;;;1.20;;
21697;SDS011;11010;49.548;11.926;2023-02-17T13:30:03;6.80;;;1.50;;
21697;SDS011;11010;49.548;11.926;2023-02-17T13:32:32;7.00;;;1.90;;
21697;SDS011;11010;49.548;11.926;2023-02-17T13:35:02;6.53;;;1.40;;
21697;SDS011;11010;49.548;11.926;2023-02-17T13:39:59;5.07;;;1.43;;
21697;SDS011;11010;49.548;11.926;2023-02-17T13:42:32;2.03;;;0.70;;
21697;SDS011;11010;49.548;11.926;2023-02-17T13:45:01;4.53;;;1.27;;
21697;SDS011;11010;49.548;11.926;2023-02-17T13:47:33;8.30;;;1.67;;
21697;SDS011;11010;49.548;11.926;2023-02-17T13:50:03;5.67;;;1.60;;
21697;SDS011;11010;49.548;11.926;2023-02-17T13:52:31;5.40;;;1.43;;
21697;SDS011;11010;49.548;11.926;2023-02-17T13:55:00;6.27;;;1.60;;
21697;SDS011;11010;49.548;11.926;2023-02-17T13:57:31;6.03;;;1.40;;
21697;SDS011;11010;49.548;11.926;2023-02-17T14:02:37;5.43;;;1.50;;
21697;SDS011;11010;49.548;11.926;2023-02-17T14:05:08;5.33;;;1.60;;
21697;SDS011;11010;49.548;11.926;2023-02-17T14:07:41;6.03;;;1.43;;
21697;SDS011;11010;49.548;11.926;2023-02-17T14:10:19;5.93;;;1.60;;
21697;SDS011;11010;49.548;11.926;2023-02-17T14:12:47;6.70;;;1.97;;
21697;SDS011;11010;49.548;11.926;2023-02-17T14:15:16;6.50;;;1.80;;
21697;SDS011;11010;49.548;11.926;2023-02-17T14:17:44;5.10;;;1.50;;
21697;SDS011;11010;49.548;11.926;2023-02-17T14:22:58;6.73;;;1.60;;
21697;SDS011;11010;49.548;11.926;2023-02-17T14:25:31;6.50;;;1.70;;
21697;SDS011;11010;49.548;11.926;2023-02-17T14:27:58;5.43;;;1.53;;
21697;SDS011;11010;49.548;11.926;2023-02-17T14:40:47;6.30;;;1.77;;
21697;SDS011;11010;49.548;11.926;2023-02-17T14:43:15;5.93;;;1.77;;
21697;SDS011;11010;49.548;11.926;2023-02-17T14:45:42;6.50;;;1.70;;
21697;SDS011;11010;49.548;11.926;2023-02-17T14:48:10;5.60;;;1.60;;
21697;SDS011;11010;49.548;11.926;2023-02-17T14:50:37;6.50;;;2.17;;
21697;SDS011;11010;49.548;11.926;2023-02-17T14:53:20;5.30;;;1.77;;
21697;SDS011;11010;49.548;11.926;2023-02-17T14:55:50;7.97;;;2.07;;
21697;SDS011;11010;49.548;11.926;2023-02-17T14:58:20;5.93;;;1.80;;
21697;SDS011;11010;49.548;11.926;2023-02-17T15:00:48;6.03;;;2.00;;
21697;SDS011;11010;49.548;11.926;2023-02-17T15:03:16;6.13;;;1.77;;
21697;SDS011;11010;49.548;11.926;2023-02-17T15:05:43;6.63;;;1.73;;
21697;SDS011;11010;49.548;11.926;2023-02-17T15:08:12;6.37;;;1.80;;
21697;SDS011;11010;49.548;11.926;2023-02-17T15:10:41;3.17;;;1.03;;
21697;SDS011;11010;49.548;11.926;2023-02-17T15:13:11;5.43;;;1.70;;
21697;SDS011;11010;49.548;11.926;2023-02-17T15:15:39;5.57;;;1.63;;
21697;SDS011;11010;49.548;11.926;2023-02-17T15:18:10;6.40;;;1.70;;
21697;SDS011;11010;49.548;11.926;2023-02-17T15:20:38;5.63;;;1.50;;
21697;SDS011;11010;49.548;11.926;2023-02-17T15:23:14;3.80;;;1.10;;
21697;SDS011;11010;49.548;11.926;2023-02-17T15:25:42;5.43;;;1.50;;
21697;SDS011;11010;49.548;11.926;2023-02-17T15:28:14;6.53;;;1.40;;
21697;SDS011;11010;49.548;11.926;2023-02-17T15:30:42;5.50;;;1.50;;
21697;SDS011;11010;49.548;11.926;2023-02-17T15:33:12;7.43;;;1.60;;
21697;SDS011;11010;49.548;11.926;2023-02-17T15:35:40;4.83;;;1.33;;
21697;SDS011;11010;49.548;11.926;2023-02-17T15:38:10;3.33;;;1.07;;
21697;SDS011;11010;49.548;11.926;2023-02-17T15:40:38;8.30;;;1.60;;
21697;SDS011;11010;49.548;11.926;2023-02-17T15:43:07;5.93;;;1.73;;
21697;SDS011;11010;49.548;11.926;2023-02-17T15:45:37;6.63;;;1.40;;
21697;SDS011;11010;49.548;11.926;2023-02-17T15:48:06;5.90;;;1.57;;
21697;SDS011;11010;49.548;11.926;2023-02-17T15:50:33;5.50;;;1.60;;
21697;SDS011;11010;49.548;11.926;2023-02-17T15:53:01;4.27;;;1.20;;
21697;SDS011;11010;49.548;11.926;2023-02-17T15:55:28;5.97;;;1.60;;
21697;SDS011;11010;49.548;11.926;2023-02-17T15:57:57;5.93;;;1.57;;
21697;SDS011;11010;49.548;11.926;2023-02-17T16:00:26;6.93;;;2.20;;
21697;SDS011;11010;49.548;11.926;2023-02-17T16:02:54;5.70;;;1.50;;
21697;SDS011;11010;49.548;11.926;2023-02-17T16:05:22;6.30;;;1.60;;
21697;SDS011;11010;49.548;11.926;2023-02-17T16:07:50;5.87;;;1.60;;
21697;SDS011;11010;49.548;11.926;2023-02-17T16:10:19;5.70;;;1.40;;
21697;SDS011;11010;49.548;11.926;2023-02-17T16:12:47;4.40;;;1.13;;
21697;SDS011;11010;49.548;11.926;2023-02-17T16:15:16;4.60;;;1.23;;
21697;SDS011;11010;49.548;11.926;2023-02-17T16:17:45;4.97;;;1.40;;
21697;SDS011;11010;49.548;11.926;2023-02-17T16:20:17;4.17;;;1.17;;
21697;SDS011;11010;49.548;11.926;2023-02-17T16:22:46;4.10;;;1.27;;
21697;SDS011;11010;49.548;11.926;2023-02-17T16:25:14;4.73;;;1.20;;
21697;SDS011;11010;49.548;11.926;2023-02-17T16:27:42;5.63;;;1.40;;
21697;SDS011;11010;49.548;11.926;2023-02-17T16:30:17;4.60;;;1.10;;
21697;SDS011;11010;49.548;11.926;2023-02-17T16:32:45;4.80;;;1.40;;
21697;SDS011;11010;49.548;11.926;2023-02-17T16:35:17;5.23;;;1.30;;
21697;SDS011;11010;49.548;11.926;2023-02-17T16:37:47;6.50;;;1.37;;
21697;SDS011;11010;49.548;11.926;2023-02-17T16:40:16;4.87;;;1.33;;
21697;SDS011;11010;49.548;11.926;2023-02-17T16:42:44;3.37;;;0.90;;
21697;SDS011;11010;49.548;11.926;2023-02-17T16:45:15;7.80;;;1.50;;
21697;SDS011;11010;49.548;11.926;2023-02-17T16:47:43;5.97;;;1.50;;
21697;SDS011;11010;49.548;11.926;2023-02-17T16:50:16;6.67;;;1.43;;
21697;SDS011;11010;49.548;11.926;2023-02-17T16:52:43;4.30;;;1.20;;
21697;SDS011;11010;49.548;11.926;2023-02-17T16:55:14;4.90;;;1.47;;
21697;SDS011;11010;49.548;11.926;2023-02-17T16:57:42;5.30;;;1.33;;
21697;SDS011;11010;49.548;11.926;2023-02-17T17:00:16;5.90;;;1.37;;